Time;durP1;ratioP1;P1;durP2;ratioP2;P2;SDS_P1;SDS_P2;PMS_P1;PMS_P2;Temp;Humidity;BMP_temperature;BMP_pressure;BME280_temperature;BME280_humidity;BME280_pressure;Samples;Min_cycle;Max_cycle;Signal;HPM_P1;HPM_P2
2023/11/27 00:00:08;;;;;;;;;15.75;13.75;;;;;11.59;100.00;100627.19;2105697;28;46467;-62
2023/11/27 00:01:09;;;;;;;;;13.75;13.00;;;;;11.57;100.00;100624.56;2105246;28;47218;-60
2023/11/27 00:02:09;;;;;;;;;14.00;12.25;;;;;11.56;100.00;100622.84;2104523;27;46356;-62
2023/11/27 00:03:10;;;;;;;;;11.75;11.75;;;;;11.55;100.00;100621.06;2105310;28;46654;-60
2023/11/27 00:04:10;;;;;;;;;12.25;10.50;;;;;11.56;100.00;100619.28;2105359;28;45961;-59
2023/11/27 00:05:10;;;;;;;;;12.50;11.00;;;;;11.53;100.00;100620.22;2104475;28;46904;-60
2023/11/27 00:06:11;;;;;;;;;10.50;10.25;;;;;11.55;100.00;100607.78;2105524;28;45683;-62
2023/11/27 00:07:11;;;;;;;;;15.50;14.75;;;;;11.54;100.00;100614.00;2105695;28;46189;-61
2023/11/27 00:08:11;;;;;;;;;14.00;12.25;;;;;11.55;100.00;100612.22;2105681;28;46265;-60
2023/11/27 00:09:12;;;;;;;;;13.25;13.00;;;;;11.56;100.00;100611.28;2104612;28;46318;-60
2023/11/27 00:10:12;;;;;;;;;15.50;15.50;;;;;11.55;100.00;100605.13;2104861;27;46474;-61
2023/11/27 00:11:12;;;;;;;;;15.25;14.75;;;;;11.56;100.00;100608.63;2105532;28;46314;-61
2023/11/27 00:12:13;;;;;;;;;14.00;13.00;;;;;11.55;100.00;100604.25;2099972;28;46875;-61
2023/11/27 00:13:13;;;;;;;;;18.50;18.50;;;;;11.52;100.00;100607.88;2104832;28;46536;-61
2023/11/27 00:14:13;;;;;;;;;15.00;12.75;;;;;11.50;100.00;100602.59;2105608;27;46192;-61
2023/11/27 00:15:17;;;;;;;;;17.25;15.50;;;;;11.50;100.00;100602.59;2105408;27;47021;-61
2023/11/27 00:16:17;;;;;;;;;10.80;9.00;;;;;11.49;100.00;100597.31;2109702;27;46764;-61
2023/11/27 00:17:17;;;;;;;;;8.25;8.25;;;;;11.47;100.00;100597.38;2105423;27;46233;-61
2023/11/27 00:18:18;;;;;;;;;13.75;13.00;;;;;11.48;100.00;100590.28;2105717;27;46602;-59
2023/11/27 00:19:18;;;;;;;;;13.75;10.75;;;;;11.47;100.00;100592.06;2105504;27;46253;-61
2023/11/27 00:20:18;;;;;;;;;13.00;13.00;;;;;11.46;100.00;100592.09;2105828;27;46784;-59
2023/11/27 00:21:19;;;;;;;;;10.00;10.00;;;;;11.45;100.00;100580.59;2104022;28;46147;-61
2023/11/27 00:22:19;;;;;;;;;12.00;12.00;;;;;11.45;100.00;100585.03;2103987;28;46633;-61
2023/11/27 00:23:20;;;;;;;;;10.00;8.50;;;;;11.45;100.00;100580.59;2105675;28;46725;-60
2023/11/27 00:24:20;;;;;;;;;9.50;9.50;;;;;11.47;100.00;100588.53;2102263;28;46516;-59
2023/11/27 00:25:21;;;;;;;;;13.50;13.50;;;;;11.47;100.00;100585.88;2105261;27;46595;-61
2023/11/27 00:26:21;;;;;;;;;9.25;8.00;;;;;11.46;100.00;100581.47;2101482;28;46846;-60
2023/11/27 00:27:22;;;;;;;;;13.00;12.50;;;;;11.49;100.00;100578.72;2096227;28;46348;-61
2023/11/27 00:28:22;;;;;;;;;14.00;11.50;;;;;11.48;100.00;100574.31;2095556;28;46200;-60
2023/11/27 00:29:22;;;;;;;;;15.75;13.25;;;;;11.50;100.00;100576.03;2100209;28;46807;-60
2023/11/27 00:30:23;;;;;;;;;12.25;12.25;;;;;11.49;100.00;100571.63;2105116;27;46645;-59
2023/11/27 00:31:23;;;;;;;;;13.25;11.25;;;;;11.50;100.00;100568.03;2105795;28;46171;-61
2023/11/27 00:32:23;;;;;;;;;12.00;12.00;;;;;11.50;100.00;100575.16;2105692;28;46234;-60
2023/11/27 00:33:24;;;;;;;;;13.25;12.25;;;;;11.49;100.00;100574.28;2105070;27;47663;-58
2023/11/27 00:34:25;;;;;;;;;12.25;12.25;;;;;11.49;100.00;100566.31;2105461;27;45078;-60
2023/11/27 00:35:26;;;;;;;;;8.50;8.00;;;;;11.48;100.00;100569.00;2105479;28;46457;-63
2023/11/27 00:36:26;;;;;;;;;13.20;9.60;;;;;11.49;100.00;100566.31;2104570;28;46435;-62
2023/11/27 00:37:27;;;;;;;;;14.00;12.00;;;;;11.50;100.00;100567.19;2105483;27;46174;-63
2023/11/27 00:38:27;;;;;;;;;10.25;9.00;;;;;11.50;100.00;100562.72;2105613;28;46617;-61
2023/11/27 00:39:27;;;;;;;;;13.00;11.00;;;;;11.50;100.00;100560.06;2104840;28;46334;-60
2023/11/27 00:40:28;;;;;;;;;14.25;13.25;;;;;11.51;100.00;100560.94;2096490;28;46583;-61
2023/11/27 00:41:28;;;;;;;;;15.50;13.75;;;;;11.51;100.00;100558.28;2104401;27;46236;-61
2023/11/27 00:42:28;;;;;;;;;10.25;10.00;;;;;11.52;100.00;100559.16;2105431;28;46314;-61
2023/11/27 00:43:29;;;;;;;;;11.50;11.50;;;;;11.50;100.00;100560.06;2105529;28;46240;-60
2023/11/27 00:44:29;;;;;;;;;11.50;11.50;;;;;11.48;100.00;100561.03;2105692;28;46224;-60
2023/11/27 00:45:31;;;;;;;;;10.25;10.25;;;;;11.47;100.00;100556.63;2104787;28;46384;-62
2023/11/27 00:46:31;;;;;;;;;12.40;11.20;;;;;11.45;100.00;100554.03;2104785;28;46546;-60
2023/11/27 00:47:34;;;;;;;;;13.50;11.75;;;;;11.46;100.00;100555.78;2104940;28;46347;-59
2023/11/27 00:48:34;;;;;;;;;15.00;13.20;;;;;11.45;100.00;100553.16;2105587;28;46779;-60
2023/11/27 00:49:34;;;;;;;;;10.50;10.25;;;;;11.46;100.00;100555.78;2104655;28;46264;-57
2023/11/27 00:50:35;;;;;;;;;14.50;13.00;;;;;11.48;100.00;100545.09;2105010;28;46748;-61
2023/11/27 00:51:35;;;;;;;;;15.75;14.00;;;;;11.48;100.00;100545.97;2105447;28;46440;-60
2023/11/27 00:52:35;;;;;;;;;12.00;12.00;;;;;11.49;100.00;100547.69;2105546;27;46823;-59
2023/11/27 00:53:36;;;;;;;;;13.50;11.75;;;;;11.49;100.00;100541.53;2103712;28;46688;-59
2023/11/27 00:54:36;;;;;;;;;14.00;10.75;;;;;11.51;100.00;100547.66;2104576;28;46342;-60
2023/11/27 00:55:37;;;;;;;;;10.25;10.25;;;;;11.50;100.00;100544.13;2105127;27;46387;-58
2023/11/27 00:56:37;;;;;;;;;12.25;11.75;;;;;11.51;100.00;100542.34;2105511;27;46817;-59
2023/11/27 00:57:37;;;;;;;;;12.00;11.25;;;;;11.53;100.00;100542.28;2104667;27;46747;-60
2023/11/27 00:58:38;;;;;;;;;11.25;11.25;;;;;11.54;100.00;100546.69;2105412;28;46055;-59
2023/11/27 00:59:40;;;;;;;;;7.25;7.25;;;;;11.54;100.00;100538.72;2104673;28;46225;-59
2023/11/27 01:00:40;;;;;;;;;14.00;11.40;;;;;11.52;100.00;100532.59;2104101;28;46735;-60
2023/11/27 01:01:41;;;;;;;;;11.75;10.75;;;;;11.51;100.00;100534.38;2105942;28;46417;-60
2023/11/27 01:02:41;;;;;;;;;10.75;10.75;;;;;11.52;100.00;100524.59;2105077;27;45309;-60
2023/11/27 01:03:41;;;;;;;;;6.75;6.75;;;;;11.50;100.00;100529.97;2105537;27;46747;-57
2023/11/27 01:04:42;;;;;;;;;11.00;10.75;;;;;11.47;100.00;100519.44;2104688;28;46227;-60
2023/11/27 01:05:43;;;;;;;;;10.25;9.75;;;;;11.47;100.00;100520.31;2104651;28;46374;-61
2023/11/27 01:06:43;;;;;;;;;11.20;9.40;;;;;11.48;100.00;100519.38;2103573;28;46605;-61
2023/11/27 01:07:44;;;;;;;;;13.00;10.00;;;;;11.49;100.00;100512.28;2101809;28;46452;-60
2023/11/27 01:08:44;;;;;;;;;11.50;9.50;;;;;11.49;100.00;100514.94;2105214;27;46352;-61
2023/11/27 01:09:44;;;;;;;;;14.00;14.00;;;;;11.50;100.00;100511.38;2105182;28;46137;-61
2023/11/27 01:10:45;;;;;;;;;7.00;7.00;;;;;11.20;100.00;100498.03;2103998;28;46707;-61
2023/11/27 01:11:46;;;;;;;;;13.75;12.50;;;;;11.16;100.00;100503.47;2102918;27;46438;-62
2023/11/27 01:12:46;;;;;;;;;10.60;10.00;;;;;11.43;100.00;100499.16;2104958;27;46380;-60
2023/11/27 01:13:47;;;;;;;;;13.00;10.25;;;;;11.46;100.00;100492.00;2104943;27;46332;-59
2023/11/27 01:14:47;;;;;;;;;9.00;9.00;;;;;11.50;100.00;100492.75;2104865;27;46346;-60
2023/11/27 01:15:48;;;;;;;;;14.00;14.00;;;;;11.52;100.00;100495.38;2105174;27;46008;-59
2023/11/27 01:16:48;;;;;;;;;11.00;8.75;;;;;11.53;100.00;100492.66;2107749;27;46157;-59
2023/11/27 01:17:49;;;;;;;;;10.25;10.00;;;;;11.55;100.00;100485.53;2102714;28;46794;-59
2023/11/27 01:18:49;;;;;;;;;11.25;10.25;;;;;11.55;100.00;100487.31;2105217;27;46640;-58
2023/11/27 01:19:49;;;;;;;;;9.00;8.75;;;;;11.57;100.00;100483.72;2104199;28;46045;-58
2023/11/27 01:20:50;;;;;;;;;10.25;10.25;;;;;11.57;100.00;100491.69;2104147;28;46387;-59
2023/11/27 01:21:52;;;;;;;;;16.50;12.50;;;;;11.57;100.00;100489.03;2103600;27;45935;-60
2023/11/27 01:22:53;;;;;;;;;10.20;9.60;;;;;11.58;100.00;100484.59;2104829;27;46507;-59
2023/11/27 01:23:53;;;;;;;;;10.50;9.00;;;;;11.57;100.00;100482.84;2104741;28;46141;-58
2023/11/27 01:24:53;;;;;;;;;11.00;11.00;;;;;11.58;100.00;100487.25;2104636;28;46087;-58
2023/11/27 01:25:54;;;;;;;;;8.50;8.00;;;;;11.57;100.00;100481.06;2113641;27;45478;-59
2023/11/27 01:26:54;;;;;;;;;9.75;9.75;;;;;11.53;100.00;100471.41;2096551;28;46396;-61
2023/11/27 01:27:55;;;;;;;;;9.75;9.00;;;;;11.54;100.00;100474.94;2104023;28;46445;-61
2023/11/27 01:28:55;;;;;;;;;8.25;8.25;;;;;11.54;100.00;100469.63;2105190;28;46294;-60
2023/11/27 01:29:55;;;;;;;;;10.25;9.25;;;;;11.55;100.00;100466.91;2105209;28;46780;-58
2023/11/27 01:30:55;;;;;;;;;10.00;10.00;;;;;11.52;100.00;100464.34;2105137;28;46156;-61
2023/11/27 01:31:56;;;;;;;;;8.00;8.00;;;;;11.52;100.00;100463.47;2105222;28;46632;-61
2023/11/27 01:32:56;;;;;;;;;12.00;9.75;;;;;11.50;100.00;100467.06;2105043;28;46186;-60
2023/11/27 01:33:56;;;;;;;;;12.50;12.50;;;;;11.52;100.00;100461.69;2103681;28;46867;-60
2023/11/27 01:34:57;;;;;;;;;8.00;7.75;;;;;11.53;100.00;100457.25;2099871;27;46667;-61
2023/11/27 01:35:57;;;;;;;;;11.00;11.00;;;;;11.53;100.00;100465.22;2104559;28;46676;-63
2023/11/27 01:36:57;;;;;;;;;11.25;11.25;;;;;11.52;100.00;100461.69;2105134;28;46733;-59
2023/11/27 01:37:58;;;;;;;;;10.25;9.75;;;;;11.50;100.00;100464.41;2104665;28;46170;-61
2023/11/27 01:38:58;;;;;;;;;12.50;10.00;;;;;11.50;100.00;100448.47;2104821;27;46667;-62
2023/11/27 01:39:58;;;;;;;;;10.50;10.50;;;;;11.50;100.00;100450.25;2104811;28;46473;-60
2023/11/27 01:41:00;;;;;;;;;13.25;12.25;;;;;11.49;100.00;100448.50;2104960;28;46076;-57
2023/11/27 01:42:00;;;;;;;;;7.40;7.20;;;;;11.49;100.00;100453.81;2105374;27;47194;-61
2023/11/27 01:43:00;;;;;;;;;9.00;9.00;;;;;11.50;100.00;100450.25;2104644;28;46555;-61
2023/11/27 01:44:01;;;;;;;;;12.75;9.00;;;;;11.49;100.00;100453.81;2104452;28;46298;-58
2023/11/27 01:45:01;;;;;;;;;9.75;9.75;;;;;11.49;100.00;100451.16;2105250;27;46787;-60
2023/11/27 01:46:25;;;;;;;;;9.00;9.00;;;;;11.49;100.00;100454.69;2105198;28;46523;-57
2023/11/27 01:47:25;;;;;;;;;7.40;7.40;;;;;11.49;100.00;100453.81;2104793;27;47041;-59
2023/11/27 01:48:25;;;;;;;;;8.25;8.25;;;;;11.48;100.00;100450.31;2105167;27;46447;-59
2023/11/27 01:49:26;;;;;;;;;10.00;10.00;;;;;11.48;100.00;100452.97;2105057;28;46374;-60
2023/11/27 01:50:26;;;;;;;;;10.00;8.00;;;;;11.52;100.00;100444.88;2104739;28;47164;-60
2023/11/27 01:51:28;;;;;;;;;10.25;9.50;;;;;11.52;100.00;100447.53;2105127;27;46389;-59
2023/11/27 01:52:29;;;;;;;;;8.80;7.00;;;;;11.52;100.00;100445.75;2103777;27;46601;-61
2023/11/27 01:53:29;;;;;;;;;9.00;9.00;;;;;11.53;100.00;100444.84;2104726;27;46450;-62
2023/11/27 01:54:31;;;;;;;;;7.75;7.25;;;;;11.52;100.00;100448.41;2105117;28;46299;-59
2023/11/27 01:55:31;;;;;;;;;7.00;7.00;;;;;11.52;100.00;100440.44;2105255;27;46419;-59
2023/11/27 01:56:33;;;;;;;;;11.75;7.50;;;;;11.51;100.00;100444.03;2104911;27;46855;-59
2023/11/27 01:57:35;;;;;;;;;5.60;5.40;;;;;11.49;100.00;100443.19;2103974;27;46392;-60
2023/11/27 01:58:36;;;;;;;;;7.40;7.00;;;;;11.48;100.00;100431.69;2104566;27;46772;-59
2023/11/27 01:59:36;;;;;;;;;8.00;7.00;;;;;11.48;100.00;100437.00;2105177;28;45555;-61
2023/11/27 02:00:38;;;;;;;;;9.00;8.25;;;;;11.48;100.00;100436.16;2105485;28;46331;-61
2023/11/27 02:01:38;;;;;;;;;10.20;10.20;;;;;11.49;100.00;100440.53;2105255;27;47301;-61
2023/11/27 02:02:44;;;;;;;;;8.00;8.00;;;;;11.47;100.00;100432.63;2105004;28;46827;-60
2023/11/27 02:03:44;;;;;;;;;8.20;8.20;;;;;11.49;100.00;100433.44;2105051;28;46530;-61
2023/11/27 02:04:44;;;;;;;;;8.00;8.00;;;;;11.49;100.00;100427.25;2104726;27;46197;-63
2023/11/27 02:05:45;;;;;;;;;8.25;8.25;;;;;11.49;100.00;100424.59;2105460;27;46427;-61
2023/11/27 02:06:45;;;;;;;;;9.25;8.00;;;;;11.50;100.00;100418.34;2105123;27;46274;-63
2023/11/27 02:07:45;;;;;;;;;6.00;6.00;;;;;11.50;100.00;100424.53;2103794;27;46416;-63
2023/11/27 02:08:46;;;;;;;;;7.25;7.25;;;;;11.50;100.00;100416.56;2104370;28;46173;-59
2023/11/27 02:09:46;;;;;;;;;9.75;8.50;;;;;11.51;100.00;100417.44;2104432;28;46404;-61
2023/11/27 02:10:47;;;;;;;;;6.75;6.00;;;;;11.53;100.00;100412.06;2104739;28;46723;-62
2023/11/27 02:11:48;;;;;;;;;7.50;7.00;;;;;11.51;100.00;100412.13;2109105;27;46327;-62
2023/11/27 02:12:48;;;;;;;;;7.60;7.40;;;;;11.52;100.00;100410.34;2109156;27;46571;-62
2023/11/27 02:13:49;;;;;;;;;8.00;7.00;;;;;11.52;100.00;100413.00;2104666;28;46861;-62
2023/11/27 02:14:52;;;;;;;;;6.25;6.25;;;;;11.52;100.00;100407.69;2104832;27;46892;-62
2023/11/27 02:15:53;;;;;;;;;6.40;6.40;;;;;11.52;100.00;100413.00;2106275;27;46417;-61
2023/11/27 02:16:53;;;;;;;;;7.75;7.75;;;;;11.52;100.00;100408.56;2104996;27;46681;-60
2023/11/27 02:17:53;;;;;;;;;9.25;8.00;;;;;11.54;100.00;100413.81;2103767;27;46712;-63
2023/11/27 02:18:54;;;;;;;;;6.00;6.00;;;;;11.55;100.00;100404.94;2104363;27;46237;-62
2023/11/27 02:19:54;;;;;;;;;5.75;5.75;;;;;11.56;100.00;100406.66;2104599;28;46789;-62
2023/11/27 02:21:03;;;;;;;;;5.67;5.67;;;;;11.57;100.00;100411.97;2088921;28;46589;-60
2023/11/27 02:22:04;;;;;;;;;7.00;7.00;;;;;11.55;100.00;100405.78;2089514;28;46627;-59
2023/11/27 02:23:15;;;;;;;;;7.00;6.80;;;;;11.56;100.00;100409.31;2103940;28;46445;-61
2023/11/27 02:24:15;;;;;;;;;6.40;6.40;;;;;11.54;100.00;100401.41;2104496;28;46457;-62
2023/11/27 02:25:16;;;;;;;;;7.00;7.00;;;;;11.54;100.00;100401.41;2103642;28;46593;-61
2023/11/27 02:26:16;;;;;;;;;6.00;6.00;;;;;11.54;100.00;100384.59;2104379;27;46742;-61
2023/11/27 02:27:16;;;;;;;;;7.00;6.50;;;;;11.54;100.00;100389.91;2094971;28;46181;-60
2023/11/27 02:28:17;;;;;;;;;7.25;6.25;;;;;11.54;100.00;100395.22;2087130;28;46633;-59
2023/11/27 02:29:17;;;;;;;;;6.67;6.67;;;;;11.53;100.00;100382.84;2103740;28;46964;-62
2023/11/27 02:30:20;;;;;;;;;7.00;7.00;;;;;11.53;100.00;100388.16;2104489;28;46570;-59
2023/11/27 02:31:20;;;;;;;;;5.20;5.00;;;;;11.54;100.00;100388.09;2104284;28;46970;-61
2023/11/27 02:32:21;;;;;;;;;8.50;8.50;;;;;11.54;100.00;100377.47;2104692;27;46756;-63
2023/11/27 02:33:25;;;;;;;;;5.60;5.60;;;;;11.53;100.00;100383.72;2105462;27;47114;-60
2023/11/27 02:34:25;;;;;;;;;9.80;7.00;;;;;11.53;100.00;100377.53;2108059;27;46778;-60
2023/11/27 02:35:25;;;;;;;;;7.00;7.00;;;;;11.55;100.00;100375.69;2104750;28;46670;-60
2023/11/27 02:36:28;;;;;;;;;7.75;7.75;;;;;11.56;100.00;100374.78;2104688;27;46820;-57
2023/11/27 02:37:28;;;;;;;;;7.20;7.20;;;;;11.57;100.00;100373.88;2104958;27;47062;-59
2023/11/27 02:38:29;;;;;;;;;6.25;5.75;;;;;11.56;100.00;100375.66;2104779;28;46594;-60
2023/11/27 02:39:29;;;;;;;;;7.50;7.50;;;;;11.57;100.00;100371.22;2105063;28;46603;-60
2023/11/27 02:40:30;;;;;;;;;6.00;6.00;;;;;11.57;100.00;100372.09;2104295;27;46194;-58
2023/11/27 02:41:30;;;;;;;;;8.00;7.00;;;;;11.57;100.00;100361.47;2104901;27;46511;-59
2023/11/27 02:42:30;;;;;;;;;9.00;8.00;;;;;11.58;100.00;100365.00;2104999;27;46978;-64
2023/11/27 02:43:31;;;;;;;;;10.00;8.00;;;;;11.58;100.00;100365.00;2101205;28;46268;-60
2023/11/27 02:44:31;;;;;;;;;7.00;7.00;;;;;11.58;100.00;100357.88;2104854;27;46943;-59
2023/11/27 02:45:34;;;;;;;;;6.50;6.50;;;;;11.59;100.00;100356.09;2104566;28;46664;-61
2023/11/27 02:46:35;;;;;;;;;7.00;7.00;;;;;11.59;100.00;100356.09;2104629;27;46602;-60
2023/11/27 02:47:35;;;;;;;;;5.00;5.00;;;;;11.59;100.00;100346.34;2104892;27;46747;-59
2023/11/27 02:48:36;;;;;;;;;8.50;7.75;;;;;11.58;100.00;100344.59;2104474;27;46299;-59
2023/11/27 02:49:38;;;;;;;;;9.25;8.75;;;;;11.60;100.00;100342.75;2104692;28;46484;-59
2023/11/27 02:50:38;;;;;;;;;7.60;7.60;;;;;11.59;100.00;100340.16;2104612;28;47418;-59
2023/11/27 02:51:42;;;;;;;;;10.00;7.00;;;;;11.59;100.00;100345.47;2108539;27;45931;-60
2023/11/27 02:52:43;;;;;;;;;7.20;5.80;;;;;11.58;100.00;100343.72;2095999;28;46469;-60
2023/11/27 02:53:43;;;;;;;;;8.00;6.50;;;;;11.58;100.00;100343.72;2112078;27;46156;-61
2023/11/27 02:54:43;;;;;;;;;7.00;7.00;;;;;11.58;100.00;100341.94;2104068;28;46269;-61
2023/11/27 02:55:44;;;;;;;;;7.00;7.00;;;;;11.58;100.00;100343.72;2104048;28;46852;-59
2023/11/27 02:56:44;;;;;;;;;5.00;5.00;;;;;11.58;100.00;100346.38;2102898;28;46668;-62
2023/11/27 02:57:46;;;;;;;;;7.00;7.00;;;;;11.57;100.00;100342.84;2104231;28;45840;-57
2023/11/27 02:58:47;;;;;;;;;7.60;5.80;;;;;11.57;100.00;100342.00;2104644;27;47036;-61
2023/11/27 02:59:47;;;;;;;;;7.50;7.00;;;;;11.56;100.00;100341.13;2104373;28;45592;-61
2023/11/27 03:00:47;;;;;;;;;9.00;7.75;;;;;11.55;100.00;100330.50;2104597;27;46398;-59
2023/11/27 03:01:48;;;;;;;;;6.00;6.00;;;;;11.55;100.00;100326.06;2104756;27;46875;-59
2023/11/27 03:02:48;;;;;;;;;8.00;7.00;;;;;11.54;100.00;100323.47;2106952;27;46426;-59
2023/11/27 03:03:49;;;;;;;;;5.00;5.00;;;;;11.53;100.00;100321.72;2098694;27;46740;-58
2023/11/27 03:04:49;;;;;;;;;6.50;6.50;;;;;11.53;100.00;100316.41;2102145;27;45441;-61
2023/11/27 03:05:49;;;;;;;;;6.00;5.50;;;;;11.53;100.00;100319.06;2103933;28;46222;-61
2023/11/27 03:06:50;;;;;;;;;6.50;6.50;;;;;11.55;100.00;100318.09;2104505;28;46455;-61
2023/11/27 03:07:50;;;;;;;;;8.50;8.00;;;;;11.55;100.00;100311.91;2104597;27;46661;-62
2023/11/27 03:08:50;;;;;;;;;5.50;5.50;;;;;11.52;100.00;100310.22;2104803;27;46498;-61
2023/11/27 03:09:51;;;;;;;;;6.00;6.00;;;;;11.54;100.00;100310.19;2105513;27;46505;-59
2023/11/27 03:10:52;;;;;;;;;8.00;6.25;;;;;11.53;100.00;100311.09;2097004;28;46827;-62
2023/11/27 03:11:52;;;;;;;;;5.00;5.00;;;;;11.48;100.00;100309.47;2103984;28;46767;-61
2023/11/27 03:12:52;;;;;;;;;8.75;7.75;;;;;11.49;100.00;100305.88;2109037;27;46348;-61
2023/11/27 03:13:53;;;;;;;;;7.00;5.25;;;;;11.52;100.00;100299.59;2105785;28;46154;-61
2023/11/27 03:14:53;;;;;;;;;5.75;5.75;;;;;11.52;100.00;100309.34;2105488;28;45124;-62
2023/11/27 03:15:53;;;;;;;;;8.00;6.00;;;;;11.50;100.00;100298.78;2109118;27;46723;-60
2023/11/27 03:16:54;;;;;;;;;4.75;4.75;;;;;11.47;100.00;100297.09;2111410;27;46504;-61
2023/11/27 03:17:54;;;;;;;;;8.00;7.00;;;;;11.48;100.00;100308.59;2105820;27;46699;-59
2023/11/27 03:18:55;;;;;;;;;7.00;6.00;;;;;11.48;100.00;100301.50;2106876;27;46438;-61
2023/11/27 03:19:55;;;;;;;;;8.00;6.00;;;;;11.48;100.00;100306.81;2105190;27;46611;-61
2023/11/27 03:20:55;;;;;;;;;7.75;7.75;;;;;11.47;100.00;100298.88;2105839;27;46955;-61
2023/11/27 03:21:55;;;;;;;;;7.00;6.75;;;;;11.47;100.00;100301.53;2104619;27;46409;-61
2023/11/27 03:22:56;;;;;;;;;7.75;6.75;;;;;11.48;100.00;100292.66;2109364;27;46623;-60
2023/11/27 03:23:56;;;;;;;;;8.25;7.00;;;;;11.47;100.00;100302.41;2108722;27;46577;-61
2023/11/27 03:24:57;;;;;;;;;5.00;4.00;;;;;11.47;100.00;100291.78;2105540;28;46361;-61
2023/11/27 03:25:57;;;;;;;;;6.00;6.00;;;;;11.48;100.00;100290.00;2105733;28;46256;-61
2023/11/27 03:26:58;;;;;;;;;6.00;6.00;;;;;11.49;100.00;100294.38;2105360;28;46637;-60
2023/11/27 03:27:58;;;;;;;;;6.25;6.25;;;;;11.48;100.00;100288.22;2105874;27;46480;-61
2023/11/27 03:28:58;;;;;;;;;7.00;6.00;;;;;11.42;100.00;100285.72;2106542;27;46491;-63
2023/11/27 03:29:59;;;;;;;;;6.00;4.75;;;;;11.41;100.00;100286.66;2101523;28;46466;-59
2023/11/27 03:30:59;;;;;;;;;4.75;3.00;;;;;11.47;100.00;100281.16;2106293;27;46341;-61
2023/11/27 03:31:59;;;;;;;;;6.00;6.00;;;;;11.49;100.00;100286.41;2105787;27;46499;-61
2023/11/27 03:32:59;;;;;;;;;6.25;6.00;;;;;11.20;100.00;100279.38;2105848;27;45790;-61
2023/11/27 03:34:00;;;;;;;;;6.50;6.50;;;;;10.99;100.00;100282.69;2104818;27;46592;-60
2023/11/27 03:35:01;;;;;;;;;6.50;6.50;;;;;11.06;100.00;100269.19;2106208;28;45495;-61
2023/11/27 03:36:02;;;;;;;;;7.60;7.00;;;;;11.06;100.00;100269.19;2105980;27;46689;-62
2023/11/27 03:37:02;;;;;;;;;6.00;6.00;;;;;11.07;100.00;100268.28;2106324;27;45978;-59
2023/11/27 03:38:03;;;;;;;;;5.25;5.25;;;;;11.05;100.00;100258.59;2104620;27;46057;-60
2023/11/27 03:39:03;;;;;;;;;7.50;6.25;;;;;11.06;100.00;100265.66;2105494;28;46650;-59
2023/11/27 03:40:05;;;;;;;;;5.00;5.00;;;;;11.05;100.00;100264.78;2104628;27;46461;-61
2023/11/27 03:41:06;;;;;;;;;8.00;8.00;;;;;11.05;100.00;100261.25;2087909;28;46695;-62
2023/11/27 03:42:06;;;;;;;;;5.75;5.75;;;;;11.35;100.00;100259.44;2083430;28;46505;-60
2023/11/27 03:43:06;;;;;;;;;5.25;5.25;;;;;11.08;100.00;100255.88;2091346;28;46267;-62
2023/11/27 03:44:10;;;;;;;;;6.75;5.25;;;;;11.22;100.00;100250.97;2088642;28;46873;-61
2023/11/27 03:45:10;;;;;;;;;7.40;7.00;;;;;11.39;100.00;100245.13;2088624;28;46330;-58
2023/11/27 03:46:10;;;;;;;;;6.75;6.75;;;;;11.40;100.00;100249.50;2095972;28;46525;-60
2023/11/27 03:47:11;;;;;;;;;6.00;6.00;;;;;11.44;100.00;100248.50;2096128;28;46548;-60
2023/11/27 03:48:11;;;;;;;;;7.00;7.00;;;;;11.42;100.00;100237.91;2097632;28;46673;-61
2023/11/27 03:49:12;;;;;;;;;6.00;6.00;;;;;11.43;100.00;100242.34;2097637;28;46622;-63
2023/11/27 03:50:13;;;;;;;;;7.75;7.75;;;;;11.45;100.00;100237.81;2096856;28;46595;-62
2023/11/27 03:51:13;;;;;;;;;7.40;6.20;;;;;11.45;100.00;100229.00;2097526;28;46563;-62
2023/11/27 03:52:14;;;;;;;;;4.50;4.50;;;;;11.44;100.00;100228.13;2096996;28;46722;-62
2023/11/27 03:53:14;;;;;;;;;7.00;7.00;;;;;11.42;100.00;100219.31;2096513;28;46241;-60
2023/11/27 03:54:15;;;;;;;;;7.25;6.75;;;;;11.39;100.00;100214.09;2097568;28;47067;-63
2023/11/27 03:55:15;;;;;;;;;5.00;5.00;;;;;11.41;100.00;100222.88;2096829;28;46150;-63
2023/11/27 03:56:15;;;;;;;;;6.00;6.00;;;;;11.40;100.00;100215.84;2097171;28;46560;-60
2023/11/27 03:57:16;;;;;;;;;7.50;6.00;;;;;11.37;100.00;100210.63;2097239;28;46649;-62
2023/11/27 03:58:16;;;;;;;;;6.50;6.00;;;;;11.36;100.00;100216.00;2096737;28;46967;-61
2023/11/27 03:59:18;;;;;;;;;6.00;6.00;;;;;11.32;100.00;100211.72;2097051;28;46494;-59
2023/11/27 04:00:18;;;;;;;;;6.80;5.00;;;;;11.29;100.00;100211.78;2097549;28;46459;-60
2023/11/27 04:01:19;;;;;;;;;6.00;6.00;;;;;11.28;100.00;100202.97;2097427;28;46608;-61
2023/11/27 04:02:19;;;;;;;;;3.75;3.75;;;;;11.28;100.00;100196.78;2096120;28;46273;-60
2023/11/27 04:03:19;;;;;;;;;7.00;7.00;;;;;11.28;100.00;100202.97;2095822;28;46414;-59
2023/11/27 04:04:20;;;;;;;;;6.00;5.75;;;;;11.28;100.00;100197.63;2096753;28;46374;-61
2023/11/27 04:05:20;;;;;;;;;7.75;6.75;;;;;11.27;100.00;100195.91;2097376;28;46223;-60
2023/11/27 04:06:34;;;;;;;;;8.00;6.75;;;;;11.26;100.00;100193.31;2095831;28;46423;-59
2023/11/27 04:07:34;;;;;;;;;5.40;4.00;;;;;11.25;100.00;100191.56;2096370;28;46356;-58
2023/11/27 04:08:42;;;;;;;;;5.67;5.33;;;;;11.25;100.00;100191.56;2097764;28;46462;-60
2023/11/27 04:09:42;;;;;;;;;7.20;6.40;;;;;11.23;100.00;100190.75;2096890;28;46786;-59
2023/11/27 04:10:42;;;;;;;;;7.00;7.00;;;;;11.19;100.00;100182.03;2097635;28;45071;-57
2023/11/27 04:11:42;;;;;;;;;7.50;6.00;;;;;11.17;100.00;100184.72;2097361;28;46377;-59
2023/11/27 04:12:43;;;;;;;;;7.50;7.50;;;;;11.17;100.00;100189.16;2096622;28;46731;-61
2023/11/27 04:13:44;;;;;;;;;7.50;7.50;;;;;11.16;100.00;100190.06;2097351;28;46226;-59
2023/11/27 04:14:44;;;;;;;;;6.75;6.00;;;;;11.14;100.00;100189.25;2097124;28;46127;-58
2023/11/27 04:15:46;;;;;;;;;9.00;8.00;;;;;11.14;100.00;100182.16;2097436;28;47002;-60
2023/11/27 04:16:47;;;;;;;;;6.00;6.00;;;;;11.14;100.00;100194.56;2097077;28;46436;-58
2023/11/27 04:17:47;;;;;;;;;6.00;6.00;;;;;11.13;100.00;100183.09;2097944;28;46555;-57
2023/11/27 04:18:48;;;;;;;;;7.00;7.00;;;;;11.11;100.00;100181.41;2100819;27;46711;-59
2023/11/27 04:19:48;;;;;;;;;6.50;5.25;;;;;11.10;100.00;100174.34;2102915;28;46494;-60
2023/11/27 04:20:49;;;;;;;;;8.75;7.00;;;;;11.09;100.00;100181.47;2094713;27;46270;-59
2023/11/27 04:21:49;;;;;;;;;7.00;6.00;;;;;11.05;100.00;100171.84;2097051;28;47233;-60
2023/11/27 04:22:50;;;;;;;;;7.00;4.00;;;;;11.06;100.00;100178.03;2097310;28;46567;-57
2023/11/27 04:23:51;;;;;;;;;6.50;6.50;;;;;11.06;100.00;100188.66;2096659;28;46777;-60
2023/11/27 04:24:52;;;;;;;;;5.80;5.80;;;;;11.06;100.00;100178.91;2096642;28;46807;-61
2023/11/27 04:25:52;;;;;;;;;8.00;6.80;;;;;11.03;100.00;100181.63;2097276;28;46491;-58
2023/11/27 04:26:53;;;;;;;;;9.50;8.50;;;;;11.01;100.00;100183.47;2097349;28;46573;-59
2023/11/27 04:27:53;;;;;;;;;7.00;7.00;;;;;11.01;100.00;100172.84;2096901;28;45879;-56
2023/11/27 04:28:53;;;;;;;;;10.00;8.50;;;;;11.02;100.00;100171.06;2096749;28;46262;-59
2023/11/27 04:29:54;;;;;;;;;5.25;5.00;;;;;11.01;100.00;100178.16;2096991;28;45420;-62
2023/11/27 04:30:54;;;;;;;;;8.25;7.00;;;;;11.01;100.00;100170.19;2097177;28;46767;-61
2023/11/27 04:31:54;;;;;;;;;7.00;7.00;;;;;11.01;100.00;100169.34;2097299;28;47117;-59
2023/11/27 04:32:55;;;;;;;;;9.50;7.00;;;;;10.97;100.00;100168.56;2098126;28;46302;-59
2023/11/27 04:33:55;;;;;;;;;7.75;6.75;;;;;10.99;100.00;100171.19;2088694;28;45876;-60
2023/11/27 04:34:56;;;;;;;;;7.50;7.50;;;;;10.97;100.00;100165.06;2095551;28;46489;-61
2023/11/27 04:35:56;;;;;;;;;8.25;8.25;;;;;10.95;100.00;100165.09;2096781;28;46523;-60
2023/11/27 04:36:56;;;;;;;;;8.25;8.25;;;;;10.97;100.00;100163.25;2096204;28;46361;-59